sensor_id;sensor_type;location;lat;lon;timestamp;pressure;altitude;pressure_sealevel;temperature;humidity
61026;BME280;46911;32.650;-16.902;2023-03-01T00:00:10;102207.53;;;16.59;79.41
61026;BME280;46911;32.650;-16.902;2023-03-01T00:02:17;102211.19;;;16.58;79.25
61026;BME280;46911;32.650;-16.902;2023-03-01T00:04:20;102205.81;;;16.45;79.31
61026;BME280;46911;32.650;-16.902;2023-03-01T00:06:22;102209.13;;;16.49;79.38
61026;BME280;46911;32.650;-16.902;2023-03-01T00:08:23;102214.63;;;16.47;79.35
61026;BME280;46911;32.650;-16.902;2023-03-01T00:10:24;102217.75;;;16.41;79.01
61026;BME280;46911;32.650;-16.902;2023-03-01T00:12:26;102196.41;;;16.25;79.11
61026;BME280;46911;32.650;-16.902;2023-03-01T00:14:30;102206.97;;;16.28;79.93
61026;BME280;46911;32.650;-16.902;2023-03-01T00:16:34;102197.25;;;16.26;79.93
61026;BME280;46911;32.650;-16.902;2023-03-01T00:18:35;102201.56;;;16.28;79.82
61026;BME280;46911;32.650;-16.902;2023-03-01T00:20:36;102184.31;;;16.18;79.82
61026;BME280;46911;32.650;-16.902;2023-03-01T00:22:37;102201.34;;;16.18;79.29
61026;BME280;46911;32.650;-16.902;2023-03-01T00:24:40;102194.03;;;16.20;79.51
61026;BME280;46911;32.650;-16.902;2023-03-01T00:26:41;102199.84;;;16.27;78.64
61026;BME280;46911;32.650;-16.902;2023-03-01T00:28:45;102198.78;;;16.30;78.63
61026;BME280;46911;32.650;-16.902;2023-03-01T00:30:49;102197.59;;;16.34;78.54
61026;BME280;46911;32.650;-16.902;2023-03-01T00:32:50;102194.06;;;16.33;78.54
61026;BME280;46911;32.650;-16.902;2023-03-01T00:34:53;102198.66;;;16.31;78.65
61026;BME280;46911;32.650;-16.902;2023-03-01T00:36:54;102199.09;;;16.38;78.42
61026;BME280;46911;32.650;-16.902;2023-03-01T00:38:56;102161.59;;;16.22;78.49
61026;BME280;46911;32.650;-16.902;2023-03-01T00:41:05;102183.59;;;16.42;78.38
61026;BME280;46911;32.650;-16.902;2023-03-01T00:43:06;102177.66;;;16.36;78.58
61026;BME280;46911;32.650;-16.902;2023-03-01T00:45:07;102191.56;;;16.43;78.83
61026;BME280;46911;32.650;-16.902;2023-03-01T00:47:16;102204.94;;;16.57;78.72
61026;BME280;46911;32.650;-16.902;2023-03-01T00:49:20;102191.03;;;16.51;78.45
61026;BME280;46911;32.650;-16.902;2023-03-01T00:51:27;102202.69;;;16.64;78.64
61026;BME280;46911;32.650;-16.902;2023-03-01T00:53:30;102220.34;;;16.68;78.63
61026;BME280;46911;32.650;-16.902;2023-03-01T00:55:32;102207.13;;;16.65;78.61
61026;BME280;46911;32.650;-16.902;2023-03-01T00:57:35;102192.78;;;16.52;78.60
61026;BME280;46911;32.650;-16.902;2023-03-01T00:59:36;102195.59;;;16.50;78.84
61026;BME280;46911;32.650;-16.902;2023-03-01T01:01:37;102202.69;;;16.64;78.68
61026;BME280;46911;32.650;-16.902;2023-03-01T01:03:38;102211.31;;;16.69;79.06
61026;BME280;46911;32.650;-16.902;2023-03-01T01:05:41;102178.13;;;16.56;78.71
61026;BME280;46911;32.650;-16.902;2023-03-01T01:07:44;102193.63;;;16.65;78.83
61026;BME280;46911;32.650;-16.902;2023-03-01T01:09:51;102195.38;;;16.66;78.64
61026;BME280;46911;32.650;-16.902;2023-03-01T01:11:52;102176.81;;;16.62;78.39
61026;BME280;46911;32.650;-16.902;2023-03-01T01:13:56;102173.28;;;16.61;78.32
61026;BME280;46911;32.650;-16.902;2023-03-01T01:16:01;102190.19;;;16.76;77.90
61026;BME280;46911;32.650;-16.902;2023-03-01T01:18:05;102179.22;;;16.66;77.21
61026;BME280;46911;32.650;-16.902;2023-03-01T01:20:07;102170.59;;;16.61;76.42
61026;BME280;46911;32.650;-16.902;2023-03-01T01:22:13;102189.66;;;16.71;76.70
61026;BME280;46911;32.650;-16.902;2023-03-01T01:24:18;102166.94;;;16.62;76.64
61026;BME280;46911;32.650;-16.902;2023-03-01T01:26:25;102156.34;;;16.59;76.56
61026;BME280;46911;32.650;-16.902;2023-03-01T01:28:32;102175.09;;;16.73;76.08
61026;BME280;46911;32.650;-16.902;2023-03-01T01:30:38;102174.13;;;16.74;76.04
61026;BME280;46911;32.650;-16.902;2023-03-01T01:32:43;102161.84;;;16.70;75.86
61026;BME280;46911;32.650;-16.902;2023-03-01T01:34:47;102154.97;;;16.66;75.91
61026;BME280;46911;32.650;-16.902;2023-03-01T01:36:53;102162.94;;;16.68;75.71
61026;BME280;46911;32.650;-16.902;2023-03-01T01:38:54;102153.78;;;16.70;75.70
61026;BME280;46911;32.650;-16.902;2023-03-01T01:40:58;102148.25;;;16.72;75.56
61026;BME280;46911;32.650;-16.902;2023-03-01T01:43:01;102135.88;;;16.69;75.57
61026;BME280;46911;32.650;-16.902;2023-03-01T01:45:36;102144.69;;;16.71;75.52
61026;BME280;46911;32.650;-16.902;2023-03-01T01:47:37;102114.97;;;16.60;75.51
61026;BME280;46911;32.650;-16.902;2023-03-01T01:49:47;102141.25;;;16.69;75.71
61026;BME280;46911;32.650;-16.902;2023-03-01T01:51:54;102119.41;;;16.61;75.87
61026;BME280;46911;32.650;-16.902;2023-03-01T01:54:00;102126.19;;;16.67;75.78
61026;BME280;46911;32.650;-16.902;2023-03-01T01:56:02;102108.94;;;16.56;75.77
61026;BME280;46911;32.650;-16.902;2023-03-01T01:58:06;102100.97;;;16.55;75.85
61026;BME280;46911;32.650;-16.902;2023-03-01T02:00:16;102098.69;;;16.49;76.29
61026;BME280;46911;32.650;-16.902;2023-03-01T02:02:21;102123.16;;;16.59;76.46
61026;BME280;46911;32.650;-16.902;2023-03-01T02:04:24;102102.94;;;16.53;76.62
61026;BME280;46911;32.650;-16.902;2023-03-01T02:06:36;102112.63;;;16.55;76.94
61026;BME280;46911;32.650;-16.902;2023-03-01T02:08:40;102111.84;;;16.53;77.01
61026;BME280;46911;32.650;-16.902;2023-03-01T02:10:45;102112.16;;;16.49;77.22
61026;BME280;46911;32.650;-16.902;2023-03-01T02:12:51;102090.66;;;16.36;77.49
61026;BME280;46911;32.650;-16.902;2023-03-01T02:14:52;102089.25;;;16.30;77.90
61026;BME280;46911;32.650;-16.902;2023-03-01T02:16:59;102079.25;;;16.19;78.18
61026;BME280;46911;32.650;-16.902;2023-03-01T02:19:00;102099.25;;;16.28;78.43
61026;BME280;46911;32.650;-16.902;2023-03-01T02:23:24;102106.78;;;16.23;79.10
61026;BME280;46911;32.650;-16.902;2023-03-01T02:30:21;102099.47;;;16.12;79.67
61026;BME280;46911;32.650;-16.902;2023-03-01T02:32:23;102097.84;;;16.10;79.87
61026;BME280;46911;32.650;-16.902;2023-03-01T02:34:26;102077.19;;;15.97;80.04
61026;BME280;46911;32.650;-16.902;2023-03-01T02:36:36;102078.91;;;15.98;80.34
61026;BME280;46911;32.650;-16.902;2023-03-01T02:38:39;102087.31;;;16.06;80.23
61026;BME280;46911;32.650;-16.902;2023-03-01T02:40:40;102085.91;;;16.01;79.81
61026;BME280;46911;32.650;-16.902;2023-03-01T02:42:54;102065.03;;;15.92;79.78
61026;BME280;46911;32.650;-16.902;2023-03-01T02:44:56;102063.28;;;15.90;79.98
61026;BME280;46911;32.650;-16.902;2023-03-01T02:47:02;102071.25;;;15.92;80.11
61026;BME280;46911;32.650;-16.902;2023-03-01T02:49:30;102085.03;;;16.00;80.46
61026;BME280;46911;32.650;-16.902;2023-03-01T02:51:45;102064.03;;;15.93;80.62
61026;BME280;46911;32.650;-16.902;2023-03-01T02:54:03;102080.53;;;16.01;80.88
61026;BME280;46911;32.650;-16.902;2023-03-01T02:56:08;102078.81;;;16.00;80.64
61026;BME280;46911;32.650;-16.902;2023-03-01T02:58:14;102052.81;;;15.86;80.97
61026;BME280;46911;32.650;-16.902;2023-03-01T03:00:19;102078.81;;;16.00;81.20
61026;BME280;46911;32.650;-16.902;2023-03-01T03:02:24;102078.13;;;15.96;81.48
61026;BME280;46911;32.650;-16.902;2023-03-01T03:04:52;102054.78;;;15.84;81.63
61026;BME280;46911;32.650;-16.902;2023-03-01T03:06:53;102041.56;;;15.81;81.74
61026;BME280;46911;32.650;-16.902;2023-03-01T03:08:56;102065.13;;;15.90;82.09
61026;BME280;46911;32.650;-16.902;2023-03-01T03:11:00;102055.75;;;15.83;82.20
61026;BME280;46911;32.650;-16.902;2023-03-01T03:13:14;102029.88;;;15.67;81.71
61026;BME280;46911;32.650;-16.902;2023-03-01T03:15:17;102031.78;;;15.65;81.64
61026;BME280;46911;32.650;-16.902;2023-03-01T03:17:20;102050.00;;;15.74;81.93
61026;BME280;46911;32.650;-16.902;2023-03-01T03:19:21;102047.53;;;15.71;82.12
61026;BME280;46911;32.650;-16.902;2023-03-01T03:21:22;102049.44;;;15.69;82.20
61026;BME280;46911;32.650;-16.902;2023-03-01T03:23:23;102033.28;;;15.56;82.04
61026;BME280;46911;32.650;-16.902;2023-03-01T03:25:28;102036.53;;;15.62;82.00
61026;BME280;46911;32.650;-16.902;2023-03-01T03:27:29;102041.59;;;15.66;81.67
61026;BME280;46911;32.650;-16.902;2023-03-01T03:29:34;102028.66;;;15.59;80.99
61026;BME280;46911;32.650;-16.902;2023-03-01T03:31:37;102047.09;;;15.65;80.94
61026;BME280;46911;32.650;-16.902;2023-03-01T03:33:38;102024.69;;;15.51;80.99
61026;BME280;46911;32.650;-16.902;2023-03-01T03:35:44;102033.38;;;15.55;81.11
61026;BME280;46911;32.650;-16.902;2023-03-01T03:37:47;102020.25;;;15.50;80.92
61026;BME280;46911;32.650;-16.902;2023-03-01T03:40:07;102037.50;;;15.61;80.98
61026;BME280;46911;32.650;-16.902;2023-03-01T03:42:15;102020.25;;;15.50;80.88
61026;BME280;46911;32.650;-16.902;2023-03-01T03:44:16;102039.31;;;15.60;80.58
61026;BME280;46911;32.650;-16.902;2023-03-01T03:46:19;102037.41;;;15.62;80.56
61026;BME280;46911;32.650;-16.902;2023-03-01T03:48:23;102027.59;;;15.61;80.14
61026;BME280;46911;32.650;-16.902;2023-03-01T03:50:29;102020.06;;;15.53;79.88
61026;BME280;46911;32.650;-16.902;2023-03-01T03:52:34;102037.50;;;15.61;79.80
61026;BME280;46911;32.650;-16.902;2023-03-01T03:54:35;102024.78;;;15.63;79.65
61026;BME280;46911;32.650;-16.902;2023-03-01T03:56:36;102014.16;;;15.61;79.50
61026;BME280;46911;32.650;-16.902;2023-03-01T03:58:37;102023.84;;;15.64;79.50
61026;BME280;46911;32.650;-16.902;2023-03-01T04:00:41;101998.66;;;15.52;79.73
61026;BME280;46911;32.650;-16.902;2023-03-01T04:02:43;102004.03;;;15.52;79.62
61026;BME280;46911;32.650;-16.902;2023-03-01T04:04:46;102017.38;;;15.66;79.77
61026;BME280;46911;32.650;-16.902;2023-03-01T04:06:47;102011.25;;;15.64;79.46
61026;BME280;46911;32.650;-16.902;2023-03-01T04:08:51;102014.47;;;15.69;79.10
61026;BME280;46911;32.650;-16.902;2023-03-01T04:11:02;102011.91;;;15.68;78.68
61026;BME280;46911;32.650;-16.902;2023-03-01T04:13:22;102020.03;;;15.81;77.93
61026;BME280;46911;32.650;-16.902;2023-03-01T04:15:28;102006.00;;;15.76;77.63
61026;BME280;46911;32.650;-16.902;2023-03-01T04:17:33;102017.00;;;15.85;77.39
61026;BME280;46911;32.650;-16.902;2023-03-01T04:19:38;101994.25;;;15.77;77.30
61026;BME280;46911;32.650;-16.902;2023-03-01T04:21:39;102012.38;;;15.87;76.89
61026;BME280;46911;32.650;-16.902;2023-03-01T04:23:40;101989.63;;;15.79;76.77
61026;BME280;46911;32.650;-16.902;2023-03-01T04:27:55;101992.91;;;15.84;76.29
61026;BME280;46911;32.650;-16.902;2023-03-01T04:30:02;102002.91;;;15.95;75.81
61026;BME280;46911;32.650;-16.902;2023-03-01T04:32:07;101970.03;;;15.77;75.40
61026;BME280;46911;32.650;-16.902;2023-03-01T04:34:11;101989.03;;;15.88;75.49
61026;BME280;46911;32.650;-16.902;2023-03-01T04:36:17;101989.13;;;15.86;75.60
61026;BME280;46911;32.650;-16.902;2023-03-01T04:38:19;101971.13;;;15.74;75.72
61026;BME280;46911;32.650;-16.902;2023-03-01T04:40:20;101963.16;;;15.72;75.50
61026;BME280;46911;32.650;-16.902;2023-03-01T04:42:21;101976.88;;;15.82;75.83
61026;BME280;46911;32.650;-16.902;2023-03-01T04:44:24;101972.09;;;15.86;75.51
61026;BME280;46911;32.650;-16.902;2023-03-01T04:46:27;101961.69;;;15.81;75.50
61026;BME280;46911;32.650;-16.902;2023-03-01T04:48:31;101948.84;;;15.72;75.62
61026;BME280;46911;32.650;-16.902;2023-03-01T04:50:34;101942.69;;;15.70;75.33
61026;BME280;46911;32.650;-16.902;2023-03-01T04:52:35;101916.13;;;15.52;75.82
61026;BME280;46911;32.650;-16.902;2023-03-01T04:54:36;101928.38;;;15.56;76.11
61026;BME280;46911;32.650;-16.902;2023-03-01T04:56:37;101952.19;;;15.63;76.52
61026;BME280;46911;32.650;-16.902;2023-03-01T04:58:41;101955.19;;;15.58;76.77
61026;BME280;46911;32.650;-16.902;2023-03-01T05:00:42;101936.59;;;15.42;77.35
61026;BME280;46911;32.650;-16.902;2023-03-01T05:02:43;101947.97;;;15.46;77.35
61026;BME280;46911;32.650;-16.902;2023-03-01T05:04:49;101946.69;;;15.38;77.49
61026;BME280;46911;32.650;-16.902;2023-03-01T05:06:52;101931.50;;;15.25;77.70
61026;BME280;46911;32.650;-16.902;2023-03-01T05:08:56;101931.91;;;15.18;77.80
61026;BME280;46911;32.650;-16.902;2023-03-01T05:10:57;101936.97;;;15.23;77.12
61026;BME280;46911;32.650;-16.902;2023-03-01T05:13:01;101956.44;;;15.27;77.26
61026;BME280;46911;32.650;-16.902;2023-03-01T05:15:04;101950.41;;;15.23;77.42
61026;BME280;46911;32.650;-16.902;2023-03-01T05:17:08;101959.13;;;15.27;77.44
61026;BME280;46911;32.650;-16.902;2023-03-01T05:19:09;101944.69;;;15.15;77.32
61026;BME280;46911;32.650;-16.902;2023-03-01T05:21:18;101939.66;;;15.10;77.87
61026;BME280;46911;32.650;-16.902;2023-03-01T05:23:22;101964.84;;;15.22;77.56
61026;BME280;46911;32.650;-16.902;2023-03-01T05:25:26;101961.38;;;15.20;77.82
61026;BME280;46911;32.650;-16.902;2023-03-01T05:27:38;101959.84;;;15.16;77.85
61026;BME280;46911;32.650;-16.902;2023-03-01T05:29:39;101965.78;;;15.21;77.57
61026;BME280;46911;32.650;-16.902;2023-03-01T05:31:40;101950.41;;;15.10;77.44
61026;BME280;46911;32.650;-16.902;2023-03-01T05:33:43;101972.44;;;15.15;77.72
61026;BME280;46911;32.650;-16.902;2023-03-01T05:35:48;101974.69;;;15.09;77.87
61026;BME280;46911;32.650;-16.902;2023-03-01T05:37:52;101971.34;;;15.05;78.14
61026;BME280;46911;32.650;-16.902;2023-03-01T05:39:56;101946.03;;;14.95;78.34
61026;BME280;46911;32.650;-16.902;2023-03-01T05:41:58;101941.16;;;14.87;78.36
61026;BME280;46911;32.650;-16.902;2023-03-01T05:44:02;101944.06;;;14.84;78.45
61026;BME280;46911;32.650;-16.902;2023-03-01T05:46:05;101964.00;;;14.94;78.58
61026;BME280;46911;32.650;-16.902;2023-03-01T05:48:09;101952.91;;;14.86;78.53
61026;BME280;46911;32.650;-16.902;2023-03-01T05:50:15;101937.41;;;14.77;78.54
61026;BME280;46911;32.650;-16.902;2023-03-01T05:52:19;101955.59;;;14.86;78.71
61026;BME280;46911;32.650;-16.902;2023-03-01T05:54:21;101937.41;;;14.77;78.70
61026;BME280;46911;32.650;-16.902;2023-03-01T05:56:27;101934.03;;;14.73;78.66
61026;BME280;46911;32.650;-16.902;2023-03-01T05:58:33;101949.56;;;14.82;78.98
61026;BME280;46911;32.650;-16.902;2023-03-01T06:00:43;101966.41;;;14.84;78.97
61026;BME280;46911;32.650;-16.902;2023-03-01T06:02:46;101962.03;;;14.83;79.03
61026;BME280;46911;32.650;-16.902;2023-03-01T06:04:47;101948.44;;;14.72;79.15
61026;BME280;46911;32.650;-16.902;2023-03-01T06:06:50;101966.94;;;14.77;79.14
61026;BME280;46911;32.650;-16.902;2023-03-01T06:08:52;101978.03;;;14.85;79.28
61026;BME280;46911;32.650;-16.902;2023-03-01T06:10:53;101961.34;;;14.80;79.29
61026;BME280;46911;32.650;-16.902;2023-03-01T06:12:54;101972.88;;;14.82;79.23
61026;BME280;46911;32.650;-16.902;2023-03-01T06:14:55;101972.94;;;14.80;79.16
61026;BME280;46911;32.650;-16.902;2023-03-01T06:16:57;101973.72;;;14.82;78.79
61026;BME280;46911;32.650;-16.902;2023-03-01T06:18:58;101983.19;;;14.88;78.30
61026;BME280;46911;32.650;-16.902;2023-03-01T06:20:59;101977.16;;;14.84;78.32
61026;BME280;46911;32.650;-16.902;2023-03-01T06:23:02;101955.81;;;14.68;78.30
61026;BME280;46911;32.650;-16.902;2023-03-01T06:25:04;101979.31;;;14.79;77.96
61026;BME280;46911;32.650;-16.902;2023-03-01T06:27:08;101987.22;;;14.95;77.80
61026;BME280;46911;32.650;-16.902;2023-03-01T06:29:11;101998.72;;;14.97;77.37
61026;BME280;46911;32.650;-16.902;2023-03-01T06:31:12;101994.19;;;14.98;77.25
61026;BME280;46911;32.650;-16.902;2023-03-01T06:33:13;101983.19;;;14.88;77.35
61026;BME280;46911;32.650;-16.902;2023-03-01T06:35:15;101992.78;;;14.92;77.57
61026;BME280;46911;32.650;-16.902;2023-03-01T06:37:21;101985.88;;;14.88;77.57
61026;BME280;46911;32.650;-16.902;2023-03-01T06:39:22;101982.63;;;14.83;77.70
61026;BME280;46911;32.650;-16.902;2023-03-01T06:41:25;101988.78;;;14.85;77.46
61026;BME280;46911;32.650;-16.902;2023-03-01T06:43:28;101988.78;;;14.85;77.59
61026;BME280;46911;32.650;-16.902;2023-03-01T06:45:32;101971.53;;;14.75;77.55
61026;BME280;46911;32.650;-16.902;2023-03-01T06:47:33;101991.56;;;14.83;77.59
61026;BME280;46911;32.650;-16.902;2023-03-01T06:49:37;101970.69;;;14.74;77.57
61026;BME280;46911;32.650;-16.902;2023-03-01T06:51:42;101977.75;;;14.75;77.31
61026;BME280;46911;32.650;-16.902;2023-03-01T06:53:48;101999.31;;;14.88;77.23
61026;BME280;46911;32.650;-16.902;2023-03-01T06:55:56;102006.41;;;14.89;77.62
61026;BME280;46911;32.650;-16.902;2023-03-01T06:57:58;102004.69;;;14.88;77.43
61026;BME280;46911;32.650;-16.902;2023-03-01T07:00:00;102000.38;;;14.85;77.52
61026;BME280;46911;32.650;-16.902;2023-03-01T07:02:03;101984.69;;;14.79;77.20
61026;BME280;46911;32.650;-16.902;2023-03-01T07:04:04;102000.19;;;14.88;77.49
61026;BME280;46911;32.650;-16.902;2023-03-01T07:06:05;101986.38;;;14.80;77.32
61026;BME280;46911;32.650;-16.902;2023-03-01T07:08:09;101978.44;;;14.79;77.35
61026;BME280;46911;32.650;-16.902;2023-03-01T07:10:14;101974.22;;;14.75;77.26
61026;BME280;46911;32.650;-16.902;2023-03-01T07:12:15;101990.69;;;14.83;76.82
61026;BME280;46911;32.650;-16.902;2023-03-01T07:14:16;101983.91;;;14.77;77.04
61026;BME280;46911;32.650;-16.902;2023-03-01T07:16:17;101985.75;;;14.77;76.96
61026;BME280;46911;32.650;-16.902;2023-03-01T07:18:19;101980.25;;;14.78;77.05
61026;BME280;46911;32.650;-16.902;2023-03-01T07:20:22;101975.94;;;14.76;76.83
61026;BME280;46911;32.650;-16.902;2023-03-01T07:22:27;101979.69;;;14.73;76.75
61026;BME280;46911;32.650;-16.902;2023-03-01T07:24:28;101997.13;;;14.80;76.90
61026;BME280;46911;32.650;-16.902;2023-03-01T07:26:29;101979.69;;;14.73;76.79
61026;BME280;46911;32.650;-16.902;2023-03-01T07:28:30;101984.28;;;14.71;76.71
61026;BME280;46911;32.650;-16.902;2023-03-01T07:30:36;102003.66;;;14.76;76.69
61026;BME280;46911;32.650;-16.902;2023-03-01T07:32:37;101982.03;;;14.65;76.97
61026;BME280;46911;32.650;-16.902;2023-03-01T07:34:38;101977.50;;;14.65;76.93
61026;BME280;46911;32.650;-16.902;2023-03-01T07:36:41;101997.09;;;14.67;76.91
61026;BME280;46911;32.650;-16.902;2023-03-01T07:38:46;102012.66;;;14.75;76.69
61026;BME280;46911;32.650;-16.902;2023-03-01T07:40:49;102014.31;;;14.78;76.86
61026;BME280;46911;32.650;-16.902;2023-03-01T07:42:55;102017.66;;;14.81;76.59
61026;BME280;46911;32.650;-16.902;2023-03-01T07:44:56;102020.13;;;14.84;76.31
61026;BME280;46911;32.650;-16.902;2023-03-01T07:46:57;101996.47;;;14.77;75.93
61026;BME280;46911;32.650;-16.902;2023-03-01T07:49:06;101993.59;;;14.80;75.88
61026;BME280;46911;32.650;-16.902;2023-03-01T07:51:07;102014.81;;;14.97;75.27
61026;BME280;46911;32.650;-16.902;2023-03-01T07:53:13;101997.97;;;14.95;74.99
61026;BME280;46911;32.650;-16.902;2023-03-01T07:55:14;102000.44;;;14.98;74.72
61026;BME280;46911;32.650;-16.902;2023-03-01T07:57:22;102002.63;;;15.06;74.71
61026;BME280;46911;32.650;-16.902;2023-03-01T07:59:28;102003.38;;;15.08;74.59
61026;BME280;46911;32.650;-16.902;2023-03-01T08:01:32;101982.28;;;15.02;74.63
61026;BME280;46911;32.650;-16.902;2023-03-01T08:03:34;101978.22;;;15.09;74.33
61026;BME280;46911;32.650;-16.902;2023-03-01T08:05:40;101980.50;;;15.15;73.73
61026;BME280;46911;32.650;-16.902;2023-03-01T08:07:41;101997.22;;;15.33;73.35
61026;BME280;46911;32.650;-16.902;2023-03-01T08:09:46;101986.78;;;15.42;72.87
61026;BME280;46911;32.650;-16.902;2023-03-01T08:11:47;101988.19;;;15.47;72.71
61026;BME280;46911;32.650;-16.902;2023-03-01T08:13:49;101990.47;;;15.53;72.76
61026;BME280;46911;32.650;-16.902;2023-03-01T08:15:52;101964.22;;;15.44;72.33
61026;BME280;46911;32.650;-16.902;2023-03-01T08:17:55;101973.03;;;15.46;71.97
61026;BME280;46911;32.650;-16.902;2023-03-01T08:19:58;101981.88;;;15.61;71.73
61026;BME280;46911;32.650;-16.902;2023-03-01T08:22:01;101990.50;;;15.66;71.78
61026;BME280;46911;32.650;-16.902;2023-03-01T08:24:03;101994.16;;;15.78;71.36
61026;BME280;46911;32.650;-16.902;2023-03-01T08:26:10;102000.88;;;15.98;71.27
61026;BME280;46911;32.650;-16.902;2023-03-01T08:28:12;101994.84;;;16.08;70.88
61026;BME280;46911;32.650;-16.902;2023-03-01T08:30:13;102000.19;;;16.20;70.26
61026;BME280;46911;32.650;-16.902;2023-03-01T08:32:17;101995.34;;;16.13;70.29
61026;BME280;46911;32.650;-16.902;2023-03-01T08:34:20;101984.50;;;16.14;70.20
61026;BME280;46911;32.650;-16.902;2023-03-01T08:36:32;102001.19;;;16.19;70.23
61026;BME280;46911;32.650;-16.902;2023-03-01T08:38:36;102000.31;;;16.19;69.74
61026;BME280;46911;32.650;-16.902;2023-03-01T08:40:42;101987.38;;;16.11;69.91
61026;BME280;46911;32.650;-16.902;2023-03-01T08:42:45;101998.03;;;16.26;70.13
61026;BME280;46911;32.650;-16.902;2023-03-01T08:44:46;101992.84;;;16.35;70.13
61026;BME280;46911;32.650;-16.902;2023-03-01T08:46:47;101989.16;;;16.49;69.68
61026;BME280;46911;32.650;-16.902;2023-03-01T08:48:54;101972.09;;;16.62;69.22
61026;BME280;46911;32.650;-16.902;2023-03-01T08:51:07;101963.81;;;16.89;68.43
61026;BME280;46911;32.650;-16.902;2023-03-01T08:53:10;101976.16;;;17.40;67.25
61026;BME280;46911;32.650;-16.902;2023-03-01T08:55:11;101940.25;;;17.51;65.96
61026;BME280;46911;32.650;-16.902;2023-03-01T08:57:12;101975.56;;;17.95;64.57
61026;BME280;46911;32.650;-16.902;2023-03-01T08:59:16;101970.38;;;18.26;64.05
61026;BME280;46911;32.650;-16.902;2023-03-01T09:01:18;101980.56;;;18.45;63.80
61026;BME280;46911;32.650;-16.902;2023-03-01T09:03:25;101974.66;;;18.51;62.87
61026;BME280;46911;32.650;-16.902;2023-03-01T09:05:32;101969.34;;;18.61;62.13
61026;BME280;46911;32.650;-16.902;2023-03-01T09:07:34;101972.28;;;18.69;62.17
61026;BME280;46911;32.650;-16.902;2023-03-01T09:09:35;101951.00;;;18.76;61.86
61026;BME280;46911;32.650;-16.902;2023-03-01T09:11:38;101967.16;;;18.98;61.33
61026;BME280;46911;32.650;-16.902;2023-03-01T09:13:39;101970.56;;;19.12;61.26
61026;BME280;46911;32.650;-16.902;2023-03-01T09:15:42;101962.84;;;19.07;61.33
61026;BME280;46911;32.650;-16.902;2023-03-01T09:17:45;101978.59;;;19.02;61.17
61026;BME280;46911;32.650;-16.902;2023-03-01T09:19:47;101991.28;;;18.90;61.67
61026;BME280;46911;32.650;-16.902;2023-03-01T09:21:48;102005.56;;;18.69;62.84
61026;BME280;46911;32.650;-16.902;2023-03-01T09:23:57;102014.19;;;18.52;63.69
61026;BME280;46911;32.650;-16.902;2023-03-01T09:25:58;102009.31;;;18.23;64.53
61026;BME280;46911;32.650;-16.902;2023-03-01T09:28:01;102003.88;;;18.12;65.58
61026;BME280;46911;32.650;-16.902;2023-03-01T09:30:08;102011.88;;;18.13;65.90
61026;BME280;46911;32.650;-16.902;2023-03-01T09:32:09;102020.81;;;18.25;65.86
61026;BME280;46911;32.650;-16.902;2023-03-01T09:34:10;102036.31;;;18.23;65.72
61026;BME280;46911;32.650;-16.902;2023-03-01T09:36:15;102014.94;;;18.09;66.02
61026;BME280;46911;32.650;-16.902;2023-03-01T09:38:16;102022.56;;;18.15;66.39
61026;BME280;46911;32.650;-16.902;2023-03-01T09:40:21;102034.59;;;18.11;66.76
61026;BME280;46911;32.650;-16.902;2023-03-01T09:42:26;102014.06;;;17.97;66.67
61026;BME280;46911;32.650;-16.902;2023-03-01T09:44:42;102024.88;;;17.97;66.93
61026;BME280;46911;32.650;-16.902;2023-03-01T09:46:47;101999.91;;;17.82;67.25
61026;BME280;46911;32.650;-16.902;2023-03-01T09:48:56;102009.97;;;17.91;67.28
61026;BME280;46911;32.650;-16.902;2023-03-01T09:51:06;102018.25;;;18.01;67.46
61026;BME280;46911;32.650;-16.902;2023-03-01T09:53:24;101989.91;;;17.95;67.73
61026;BME280;46911;32.650;-16.902;2023-03-01T09:56:12;101989.03;;;17.95;67.40
61026;BME280;46911;32.650;-16.902;2023-03-01T10:00:42;102008.56;;;18.21;66.39
61026;BME280;46911;32.650;-16.902;2023-03-01T10:04:52;102018.84;;;18.38;66.20
61026;BME280;46911;32.650;-16.902;2023-03-01T10:09:16;102004.00;;;18.55;66.13
61026;BME280;46911;32.650;-16.902;2023-03-01T10:11:25;101988.53;;;18.57;65.98
61026;BME280;46911;32.650;-16.902;2023-03-01T10:13:51;102009.00;;;18.71;65.25
61026;BME280;46911;32.650;-16.902;2023-03-01T10:16:06;101995.97;;;18.77;64.93
61026;BME280;46911;32.650;-16.902;2023-03-01T10:18:18;101997.03;;;18.97;63.84
61026;BME280;46911;32.650;-16.902;2023-03-01T10:20:23;102000.66;;;19.18;62.79
61026;BME280;46911;32.650;-16.902;2023-03-01T10:22:28;101995.06;;;19.31;62.61
61026;BME280;46911;32.650;-16.902;2023-03-01T10:24:35;102010.63;;;19.60;62.02
61026;BME280;46911;32.650;-16.902;2023-03-01T10:26:55;102021.81;;;19.88;61.26
61026;BME280;46911;32.650;-16.902;2023-03-01T10:29:06;102009.03;;;19.79;61.11
61026;BME280;46911;32.650;-16.902;2023-03-01T10:31:15;102023.97;;;19.84;59.94
61026;BME280;46911;32.650;-16.902;2023-03-01T10:33:29;102044.34;;;19.88;60.93
61026;BME280;46911;32.650;-16.902;2023-03-01T10:35:33;102041.97;;;19.95;60.87
61026;BME280;46911;32.650;-16.902;2023-03-01T10:37:56;102029.13;;;20.18;60.46
61026;BME280;46911;32.650;-16.902;2023-03-01T10:40:04;102024.53;;;21.30;58.35
61026;BME280;46911;32.650;-16.902;2023-03-01T10:42:25;102034.25;;;22.84;54.55
61026;BME280;46911;32.650;-16.902;2023-03-01T10:44:38;102033.00;;;23.69;52.47
61026;BME280;46911;32.650;-16.902;2023-03-01T10:46:42;102032.25;;;23.85;50.21
61026;BME280;46911;32.650;-16.902;2023-03-01T10:48:45;102034.31;;;23.83;50.05
61026;BME280;46911;32.650;-16.902;2023-03-01T10:50:48;102044.63;;;23.53;51.05